createdAt,value
2018-04-22T00:00:45.715Z,60.6
2018-04-22T00:01:35.774Z,60.6
2018-04-22T00:02:25.544Z,60.6
2018-04-22T00:03:16.185Z,60.6
2018-04-22T00:04:06.259Z,60.6
2018-04-22T00:04:56.378Z,60.6
2018-04-22T00:05:46.358Z,60.6
2018-04-22T00:06:36.424Z,60.5
2018-04-22T00:07:26.298Z,60.5
2018-04-22T00:08:16.575Z,60.5
2018-04-22T00:09:06.084Z,60.5
2018-04-22T00:09:56.684Z,60.4
2018-04-22T00:10:46.736Z,60.4
2018-04-22T00:11:36.528Z,60.4
2018-04-22T00:12:26.590Z,60.4
2018-04-22T00:13:16.683Z,60.4
2018-04-22T00:14:06.983Z,60.4
2018-04-22T00:14:57.081Z,60.4
2018-04-22T00:15:46.941Z,60.4
2018-04-22T00:16:36.939Z,60.4
2018-04-22T00:17:26.702Z,60.4
2018-04-22T00:18:17.035Z,60.4
2018-04-22T00:19:07.361Z,60.3
2018-04-22T00:19:57.438Z,60.3
2018-04-22T00:20:46.941Z,60.3
2018-04-22T00:21:37.586Z,60.3
2018-04-22T00:22:27.354Z,60.3
2018-04-22T00:23:17.674Z,60.3
2018-04-22T00:24:07.735Z,60.3
2018-04-22T00:24:57.835Z,60.3
2018-04-22T00:25:47.328Z,60.3
2018-04-22T00:26:37.675Z,60.2
2018-04-22T00:27:28.008Z,60.2
2018-04-22T00:28:18.070Z,60.2
2018-04-22T00:29:07.858Z,60.2
2018-04-22T00:29:57.953Z,60.2
2018-04-22T00:30:48.325Z,60.1
2018-04-22T00:31:37.495Z,60.1
2018-04-22T00:32:28.401Z,60.1
2018-04-22T00:33:18.451Z,60.1
2018-04-22T00:34:07.958Z,60.1
2018-04-22T00:34:58.389Z,60.1
2018-04-22T00:35:48.103Z,60.1
2018-04-22T00:36:38.716Z,60.1
2018-04-22T00:37:28.220Z,60.1
2018-04-22T00:38:18.576Z,60
2018-04-22T00:39:08.891Z,60
2018-04-22T00:39:58.688Z,60
2018-04-22T00:40:48.771Z,60
2018-04-22T00:41:38.528Z,60
2018-04-22T00:42:28.328Z,59.9
2018-04-22T00:43:18.954Z,59.9
2018-04-22T00:44:09.005Z,59.9
2018-04-22T00:44:59.382Z,59.9
2018-04-22T00:45:49.188Z,59.9
2018-04-22T00:46:39.467Z,59.9
2018-04-22T00:47:28.397Z,59.9
2018-04-22T00:48:19.605Z,59.9
2018-04-22T00:49:09.660Z,59.9
2018-04-22T00:49:59.722Z,59.9
2018-04-22T00:50:49.793Z,59.8
2018-04-22T00:51:39.863Z,59.8
2018-04-22T00:52:29.409Z,59.8
2018-04-22T00:53:19.959Z,59.8
2018-04-22T00:54:09.755Z,59.8
2018-04-22T00:54:59.823Z,59.8
2018-04-22T00:55:49.936Z,59.8
2018-04-22T00:56:40.243Z,59.8
2018-04-22T00:57:30.029Z,59.8
2018-04-22T00:58:20.371Z,59.8
2018-04-22T00:59:09.866Z,59.7
2018-04-22T01:00:00.239Z,59.7
2018-04-22T01:00:50.543Z,59.7
2018-04-22T01:01:40.345Z,59.7
2018-04-22T01:02:30.406Z,59.6
2018-04-22T01:03:20.780Z,59.6
2018-04-22T01:04:10.860Z,59.6
2018-04-22T01:05:00.330Z,59.6
2018-04-22T01:05:50.670Z,59.6
2018-04-22T01:06:40.720Z,59.6
2018-04-22T01:07:30.766Z,59.6
2018-04-22T01:08:20.854Z,59.6
2018-04-22T01:09:10.917Z,59.6
2018-04-22T01:10:01.266Z,59.6
2018-04-22T01:10:51.065Z,59.5
2018-04-22T01:11:41.371Z,59.5
2018-04-22T01:12:31.170Z,59.5
2018-04-22T01:13:21.480Z,59.5
2018-04-22T01:14:11.315Z,59.4
2018-04-22T01:15:01.146Z,59.4
2018-04-22T01:15:50.932Z,59.4
2018-04-22T01:16:41.294Z,59.4
2018-04-22T01:17:31.268Z,59.4
2018-04-22T01:18:21.398Z,59.4
2018-04-22T01:19:11.182Z,59.4
2018-04-22T01:20:01.526Z,59.4
2018-04-22T01:20:51.606Z,59.4
2018-04-22T01:21:41.670Z,59.4
2018-04-22T01:22:32.215Z,59.3
2018-04-22T01:23:22.005Z,59.3
2018-04-22T01:24:11.574Z,59.3
2018-04-22T01:25:01.931Z,59.3
2018-04-22T01:25:52.190Z,59.3
2018-04-22T01:26:42.020Z,59.3
2018-04-22T01:27:32.007Z,59.3
2018-04-22T01:28:22.659Z,59.3
2018-04-22T01:29:12.161Z,59.3
2018-04-22T01:30:02.506Z,59.3
2018-04-22T01:30:52.825Z,59.2
2018-04-22T01:31:42.895Z,59.2
2018-04-22T01:32:32.119Z,59.2
2018-04-22T01:33:22.242Z,59.2
2018-04-22T01:34:13.083Z,59.2
2018-04-22T01:35:03.155Z,59.1
2018-04-22T01:35:53.220Z,59.1
2018-04-22T01:36:43.322Z,59.1
2018-04-22T01:37:32.497Z,59.1
2018-04-22T01:38:23.130Z,59.1
2018-04-22T01:39:13.265Z,59.1
2018-04-22T01:40:03.578Z,59.1
2018-04-22T01:40:53.305Z,59.1
2018-04-22T01:41:43.684Z,59.1
2018-04-22T01:42:32.879Z,59
2018-04-22T01:43:23.508Z,59
2018-04-22T01:44:13.571Z,59
2018-04-22T01:45:03.653Z,59
2018-04-22T01:45:53.956Z,59
2018-04-22T01:46:43.756Z,58.9
2018-04-22T01:47:34.119Z,58.9
2018-04-22T01:48:23.882Z,58.9
2018-04-22T01:49:14.244Z,58.9
2018-04-22T01:50:04.321Z,58.9
2018-04-22T01:50:54.362Z,58.9
2018-04-22T01:51:44.143Z,58.9
2018-04-22T01:52:33.931Z,58.9
2018-04-22T01:53:24.548Z,58.9
2018-04-22T01:54:14.331Z,58.9
2018-04-22T01:55:04.129Z,58.8
2018-04-22T01:55:54.764Z,58.8
2018-04-22T01:56:44.807Z,58.8
2018-04-22T01:57:34.878Z,58.8
2018-04-22T01:58:24.665Z,58.8
2018-04-22T01:59:14.445Z,58.8
2018-04-22T02:00:04.831Z,58.8
2018-04-22T02:00:54.580Z,58.8
2018-04-22T02:01:44.910Z,58.8
2018-04-22T02:02:35.249Z,58.8
2018-04-22T02:03:25.047Z,58.7
2018-04-22T02:04:15.382Z,58.7
2018-04-22T02:05:05.472Z,58.7
2018-04-22T02:05:54.994Z,58.7
2018-04-22T02:06:45.571Z,58.7
2018-04-22T02:07:35.653Z,58.6
2018-04-22T02:08:25.713Z,58.6
2018-04-22T02:09:15.496Z,58.6
2018-04-22T02:10:05.279Z,58.6
2018-04-22T02:10:55.911Z,58.6
2018-04-22T02:15:06.270Z,58.5
2018-04-22T02:15:56.283Z,58.5
2018-04-22T02:16:46.319Z,58.5
2018-04-22T02:17:36.398Z,58.5
2018-04-22T02:18:26.461Z,58.5
2018-04-22T02:19:16.510Z,58.5
2018-04-22T02:20:06.319Z,58.4
2018-04-22T02:20:56.632Z,58.4
2018-04-22T02:21:45.885Z,58.4
2018-04-22T02:22:36.509Z,58.4
2018-04-22T02:23:26.812Z,58.4
2018-04-22T02:24:16.607Z,58.4
2018-04-22T02:25:06.391Z,58.4
2018-04-22T02:25:57.032Z,58.4
2018-04-22T02:26:46.854Z,58.4
2018-04-22T02:27:37.179Z,58.4
2018-04-22T02:28:26.661Z,58.3
2018-04-22T02:29:16.991Z,58.3
2018-04-22T02:30:07.366Z,58.3
2018-04-22T02:30:57.423Z,58.3
2018-04-22T02:31:47.196Z,58.3
2018-04-22T02:32:37.601Z,58.3
2018-04-22T02:33:27.598Z,58.3
2018-04-22T02:34:17.407Z,58.3
2018-04-22T02:35:07.755Z,58.3
2018-04-22T02:35:57.816Z,58.2
2018-04-22T02:36:47.562Z,58.2
2018-04-22T02:37:37.388Z,58.2
2018-04-22T02:38:28.017Z,58.2
2018-04-22T02:39:18.042Z,58.2
2018-04-22T02:40:08.103Z,58.2
2018-04-22T02:40:57.892Z,58.2
2018-04-22T02:41:47.684Z,58.1
2018-04-22T02:42:38.312Z,58.1
2018-04-22T02:43:28.113Z,58.1
2018-04-22T02:44:17.865Z,58.1
2018-04-22T02:45:08.211Z,58.1
2018-04-22T02:45:58.583Z,58.1
2018-04-22T02:46:48.364Z,58.1
2018-04-22T02:47:38.121Z,58.1
2018-04-22T02:48:28.181Z,58
2018-04-22T02:49:18.789Z,58.1
2018-04-22T02:50:08.598Z,58
2018-04-22T02:50:58.976Z,58
2018-04-22T02:51:48.744Z,58
2018-04-22T02:52:38.493Z,58
2018-04-22T02:53:28.299Z,57.9
2018-04-22T02:54:18.908Z,57.9
2018-04-22T02:55:08.963Z,57.9
2018-04-22T02:55:59.036Z,57.9
2018-04-22T02:56:49.128Z,57.9
2018-04-22T02:57:39.162Z,57.9
2018-04-22T02:58:29.243Z,57.9
2018-04-22T02:59:19.541Z,57.9
2018-04-22T03:00:09.630Z,57.9
2018-04-22T03:00:59.418Z,57.9
2018-04-22T03:01:49.813Z,57.9
2018-04-22T03:02:39.273Z,57.8
2018-04-22T03:03:29.295Z,57.8
2018-04-22T03:04:19.932Z,57.8
2018-04-22T03:05:09.985Z,57.8
2018-04-22T03:05:59.227Z,57.8
2018-04-22T03:06:50.145Z,57.8
2018-04-22T03:10:59.615Z,57.7
2018-04-22T03:11:50.537Z,57.7
2018-04-22T03:12:40.585Z,57.7
2018-04-22T03:13:30.352Z,57.7
2018-04-22T03:14:20.415Z,57.6
2018-04-22T03:15:10.746Z,57.7
2018-04-22T03:16:00.827Z,57.6
2018-04-22T03:16:50.351Z,57.6
2018-04-22T03:17:40.977Z,57.6
2018-04-22T03:18:31.026Z,57.6
2018-04-22T03:19:21.078Z,57.6
2018-04-22T03:20:11.137Z,57.6
2018-04-22T03:21:00.352Z,57.6
2018-04-22T03:21:50.982Z,57.6
2018-04-22T03:22:40.790Z,57.6
2018-04-22T03:23:30.521Z,57.6
2018-04-22T03:24:21.465Z,57.5
2018-04-22T03:25:11.429Z,57.5
2018-04-22T03:26:00.999Z,57.5
2018-04-22T03:26:51.647Z,57.5
2018-04-22T03:27:40.862Z,57.4
2018-04-22T03:28:31.485Z,57.4
2018-04-22T03:29:21.293Z,57.4
2018-04-22T03:30:11.896Z,57.4
2018-04-22T03:31:01.984Z,57.4
2018-04-22T03:31:52.062Z,57.4
2018-04-22T03:32:41.826Z,57.4
2018-04-22T03:33:32.136Z,57.4
2018-04-22T03:34:21.630Z,57.4
2018-04-22T03:35:12.292Z,57.4
2018-04-22T03:36:02.355Z,57.4
2018-04-22T03:36:52.419Z,57.3
2018-04-22T03:37:42.460Z,57.3
2018-04-22T03:38:32.244Z,57.3
2018-04-22T03:39:22.622Z,57.3
2018-04-22T03:40:12.640Z,57.3
2018-04-22T03:41:02.734Z,57.3
2018-04-22T03:41:52.497Z,57.2
2018-04-22T03:42:42.300Z,57.2
2018-04-22T03:43:32.985Z,57.2
2018-04-22T03:44:22.967Z,57.1
2018-04-22T03:45:13.013Z,57.1
2018-04-22T03:46:02.837Z,57.1
2018-04-22T03:46:52.599Z,57.1
2018-04-22T03:47:42.375Z,57.1
2018-04-22T03:48:33.015Z,57.1
2018-04-22T03:49:23.333Z,57.1
2018-04-22T03:50:13.121Z,57.1
2018-04-22T03:51:03.460Z,57.1
2018-04-22T03:51:53.559Z,57.1
2018-04-22T03:52:43.335Z,57
2018-04-22T03:53:33.387Z,57
2018-04-22T03:54:23.764Z,57
2018-04-22T03:55:13.500Z,57
2018-04-22T03:56:03.883Z,57
2018-04-22T03:56:53.339Z,56.9
2018-04-22T03:57:43.968Z,56.9
2018-04-22T03:58:34.066Z,56.9
2018-04-22T03:59:23.561Z,56.9
2018-04-22T04:00:14.157Z,56.9
2018-04-22T04:01:04.198Z,56.9
2018-04-22T04:01:54.036Z,56.9
2018-04-22T04:02:43.528Z,56.9
2018-04-22T04:03:34.115Z,56.9
2018-04-22T04:04:24.505Z,56.8
2018-04-22T04:05:14.551Z,56.8
2018-04-22T04:06:04.645Z,56.8
2018-04-22T04:06:54.708Z,56.7
2018-04-22T04:07:44.456Z,56.7
2018-04-22T04:08:34.813Z,56.7
2018-04-22T04:09:24.578Z,56.7
2018-04-22T04:10:14.645Z,56.6
2018-04-22T04:11:04.999Z,56.6
2018-04-22T04:11:54.780Z,56.6
2018-04-22T04:12:45.128Z,56.6
2018-04-22T04:13:35.194Z,56.6
2018-04-22T04:14:25.250Z,56.6
2018-04-22T04:15:15.295Z,56.6
2018-04-22T04:16:05.087Z,56.6
2018-04-22T04:16:55.464Z,56.6
2018-04-22T04:17:44.966Z,56.5
2018-04-22T04:18:35.286Z,56.6
2018-04-22T04:19:25.731Z,56.5
2018-04-22T04:20:15.424Z,56.5
2018-04-22T04:21:05.746Z,56.5
2018-04-22T04:21:55.252Z,56.5
2018-04-22T04:22:45.873Z,56.4
2018-04-22T04:23:35.683Z,56.4
2018-04-22T04:24:25.993Z,56.4
2018-04-22T04:25:15.831Z,56.4
2018-04-22T04:26:06.155Z,56.4
2018-04-22T04:26:56.206Z,56.4
2018-04-22T04:27:46.313Z,56.4
2018-04-22T04:28:36.095Z,56.4
2018-04-22T04:29:26.134Z,56.3
2018-04-22T04:30:15.889Z,56.3
2018-04-22T04:31:06.529Z,56.3
2018-04-22T04:31:56.574Z,56.3
2018-04-22T04:32:46.632Z,56.3
2018-04-22T04:33:36.695Z,56.3
2018-04-22T04:34:26.786Z,56.3
2018-04-22T04:35:16.863Z,56.3
2018-04-22T04:36:07.205Z,56.2
2018-04-22T04:36:56.129Z,56.2
2018-04-22T04:37:46.741Z,56.2
2018-04-22T04:38:37.094Z,56.2
2018-04-22T04:39:26.874Z,56.2
2018-04-22T04:40:17.408Z,56.2
2018-04-22T04:41:06.728Z,56.2
2018-04-22T04:41:57.054Z,56.1
2018-04-22T04:42:47.389Z,56.1
2018-04-22T04:43:37.486Z,56.1
2018-04-22T04:44:27.521Z,56.1
2018-04-22T04:45:17.592Z,56.1
2018-04-22T04:46:07.075Z,56.1
2018-04-22T04:46:57.700Z,56.1
2018-04-22T04:47:47.767Z,56.1
2018-04-22T04:48:37.823Z,56.1
2018-04-22T04:49:27.697Z,56.1
2018-04-22T04:50:17.999Z,56
2018-04-22T04:51:08.060Z,56
2018-04-22T04:51:57.519Z,56
2018-04-22T04:52:48.207Z,56
2018-04-22T04:53:38.208Z,56
2018-04-22T04:54:28.527Z,56
2018-04-22T04:55:18.402Z,55.9
2018-04-22T04:56:08.450Z,55.9
2018-04-22T04:56:57.899Z,55.9
2018-04-22T04:57:48.237Z,55.9
2018-04-22T04:58:38.606Z,55.9
2018-04-22T04:59:28.678Z,55.9
2018-04-22T05:00:18.703Z,55.9
2018-04-22T05:01:08.521Z,55.9
2018-04-22T05:01:58.866Z,55.9
2018-04-22T05:02:48.666Z,55.8
2018-04-22T05:03:38.988Z,55.8
2018-04-22T05:04:28.770Z,55.8
2018-04-22T05:05:18.830Z,55.8
2018-04-22T05:06:08.944Z,55.8
2018-04-22T05:06:59.222Z,55.8
2018-04-22T05:07:48.993Z,55.8
2018-04-22T05:08:39.068Z,55.8
2018-04-22T05:09:29.413Z,55.8
2018-04-22T05:10:18.994Z,55.8
2018-04-22T05:11:09.597Z,55.8
2018-04-22T05:11:59.091Z,55.7
2018-04-22T05:12:49.402Z,55.7
2018-04-22T05:13:39.175Z,55.7
2018-04-22T05:14:29.541Z,55.7
2018-04-22T05:15:19.585Z,55.7
2018-04-22T05:16:09.355Z,55.6
2018-04-22T05:16:59.760Z,55.6
2018-04-22T05:17:49.776Z,55.6
2018-04-22T05:18:39.921Z,55.6
2018-04-22T05:19:30.217Z,55.6
2018-04-22T05:20:19.955Z,55.6
2018-04-22T05:21:09.769Z,55.6
2018-04-22T05:22:00.399Z,55.6
2018-04-22T05:22:50.143Z,55.6
2018-04-22T05:23:40.473Z,55.6
2018-04-22T05:24:30.293Z,55.5
2018-04-22T05:25:20.609Z,55.5
2018-04-22T05:26:10.130Z,55.5
2018-04-22T05:27:00.473Z,55.5
2018-04-22T05:27:50.514Z,55.5
2018-04-22T05:28:40.876Z,55.5
2018-04-22T05:29:30.926Z,55.4
2018-04-22T05:30:20.712Z,55.4
2018-04-22T05:31:11.380Z,55.4
2018-04-22T05:32:01.120Z,55.4
2018-04-22T05:32:51.189Z,55.4
2018-04-22T05:33:41.262Z,55.4
2018-04-22T05:34:31.326Z,55.4
2018-04-22T05:35:21.380Z,55.4
2018-04-22T05:36:11.439Z,55.4
2018-04-22T05:37:01.508Z,55.4
2018-04-22T05:37:51.575Z,55.4
2018-04-22T05:38:41.610Z,55.3
2018-04-22T05:39:31.407Z,55.3
2018-04-22T05:40:21.747Z,55.3
2018-04-22T05:41:11.534Z,55.3
2018-04-22T05:42:01.894Z,55.3
2018-04-22T05:42:51.947Z,55.3
2018-04-22T05:43:41.734Z,55.3
2018-04-22T05:44:31.521Z,55.3
2018-04-22T05:45:21.836Z,55.3
2018-04-22T05:46:11.942Z,55.3
2018-04-22T05:47:02.269Z,55.3
2018-04-22T05:47:52.336Z,55.3
2018-04-22T05:48:42.478Z,55.2
2018-04-22T05:49:32.454Z,55.2
2018-04-22T05:50:22.524Z,55.2
2018-04-22T05:51:11.746Z,55.1
2018-04-22T05:52:02.387Z,55.1
2018-04-22T05:52:52.441Z,55.1
2018-04-22T05:53:42.772Z,55.1
2018-04-22T05:54:32.836Z,55.1
2018-04-22T05:55:22.601Z,55.1
2018-04-22T05:56:12.960Z,55.1
2018-04-22T05:57:02.744Z,55.1
2018-04-22T05:57:52.545Z,55.1
2018-04-22T05:58:43.140Z,55.1
2018-04-22T05:59:33.217Z,55
2018-04-22T06:00:22.728Z,55
2018-04-22T06:01:12.803Z,55
2018-04-22T06:02:03.405Z,55
2018-04-22T06:02:53.756Z,55
2018-04-22T06:03:43.244Z,55
2018-04-22T06:04:32.752Z,55
2018-04-22T06:05:23.390Z,54.9
2018-04-22T06:06:13.467Z,54.9
2018-04-22T06:07:02.949Z,54.9
2018-04-22T06:07:53.881Z,54.9
2018-04-22T06:08:43.799Z,54.9
2018-04-22T06:09:33.717Z,54.9
2018-04-22T06:10:23.469Z,54.9
2018-04-22T06:11:14.177Z,54.9
2018-04-22T06:12:03.924Z,54.9
2018-04-22T06:12:54.224Z,54.9
2018-04-22T06:13:43.702Z,54.9
2018-04-22T06:14:34.069Z,54.8
2018-04-22T06:15:24.456Z,54.8
2018-04-22T06:16:14.483Z,54.8
2018-04-22T06:17:04.566Z,54.8
2018-04-22T06:17:53.782Z,54.8
2018-04-22T06:18:44.673Z,54.8
2018-04-22T06:19:34.459Z,54.8
2018-04-22T06:20:24.809Z,54.8
2018-04-22T06:21:14.593Z,54.8
2018-04-22T06:22:04.171Z,54.8
2018-04-22T06:22:54.959Z,54.8
2018-04-22T06:23:45.030Z,54.7
2018-04-22T06:24:34.846Z,54.7
2018-04-22T06:25:24.901Z,54.7
2018-04-22T06:26:14.651Z,54.7
2018-04-22T06:27:05.016Z,54.7
2018-04-22T06:27:55.080Z,54.6
2018-04-22T06:28:45.398Z,54.6
2018-04-22T06:29:35.223Z,54.6
2018-04-22T06:30:25.552Z,54.6
2018-04-22T06:31:15.337Z,54.6
2018-04-22T06:32:05.424Z,54.6
2018-04-22T06:32:53.575Z,54.6
2018-04-22T06:33:45.249Z,54.6
2018-04-22T06:34:34.751Z,54.6
2018-04-22T06:35:25.936Z,54.6
2018-04-22T06:36:15.718Z,54.6
2018-04-22T06:37:05.783Z,54.6
2018-04-22T06:37:56.136Z,54.5
2018-04-22T06:38:46.175Z,54.5
2018-04-22T06:39:35.411Z,54.5
2018-04-22T06:40:26.318Z,54.5
2018-04-22T06:41:16.113Z,54.5
2018-04-22T06:42:05.656Z,54.5
2018-04-22T06:42:56.243Z,54.4
2018-04-22T06:43:46.094Z,54.4
2018-04-22T06:44:36.369Z,54.4
2018-04-22T06:45:26.416Z,54.4
2018-04-22T06:46:16.490Z,54.4
2018-04-22T06:47:06.535Z,54.4
2018-04-22T06:47:56.353Z,54.4
2018-04-22T06:48:46.688Z,54.4
2018-04-22T06:49:36.435Z,54.4
2018-04-22T06:50:27.094Z,54.4
2018-04-22T06:51:16.304Z,54.4
2018-04-22T06:52:06.656Z,54.3
2018-04-22T06:52:57.274Z,54.3
2018-04-22T06:53:46.763Z,54.3
2018-04-22T06:54:37.104Z,54.3
2018-04-22T06:55:27.481Z,54.3
2018-04-22T06:56:17.045Z,54.3
2018-04-22T06:57:07.606Z,54.3
2018-04-22T06:57:57.666Z,54.3
2018-04-22T06:58:47.724Z,54.3
2018-04-22T06:59:37.479Z,54.3
2018-04-22T07:00:27.859Z,54.2
2018-04-22T07:01:17.350Z,54.2
2018-04-22T07:02:07.124Z,54.2
2018-04-22T07:02:57.203Z,54.1
2018-04-22T07:03:47.542Z,54.1
2018-04-22T07:04:38.191Z,54.1
2018-04-22T07:05:28.303Z,54.1
2018-04-22T07:06:17.746Z,54.1
2018-04-22T07:07:07.795Z,54.1
2018-04-22T07:07:58.149Z,54.1
2018-04-22T07:08:48.492Z,54.1
2018-04-22T07:09:38.280Z,54
2018-04-22T07:10:27.780Z,54
2018-04-22T07:11:18.380Z,54
2018-04-22T07:12:08.480Z,54
2018-04-22T07:12:58.080Z,54
2018-04-22T07:13:48.321Z,54
2018-04-22T07:14:38.665Z,53.9
2018-04-22T07:15:29.032Z,54
2018-04-22T07:16:19.120Z,53.9
2018-04-22T07:17:09.166Z,53.9
2018-04-22T07:17:59.185Z,53.9
2018-04-22T07:18:48.696Z,53.9
2018-04-22T07:19:39.378Z,53.9
2018-04-22T07:20:29.423Z,53.9
2018-04-22T07:21:18.985Z,53.9
2018-04-22T07:22:09.233Z,53.9
2018-04-22T07:22:59.565Z,53.8
2018-04-22T07:23:49.662Z,53.8
2018-04-22T07:24:39.405Z,53.8
2018-04-22T07:25:29.480Z,53.8
2018-04-22T07:26:19.856Z,53.8
2018-04-22T07:27:09.325Z,53.8
2018-04-22T07:27:59.972Z,53.8
2018-04-22T07:28:49.735Z,53.7
2018-04-22T07:29:39.787Z,53.7
2018-04-22T07:30:29.900Z,53.7
2018-04-22T07:31:19.094Z,53.7
2018-04-22T07:32:10.089Z,53.6
2018-04-22T07:32:59.513Z,53.6
2018-04-22T07:33:49.875Z,53.6
2018-04-22T07:34:40.209Z,53.6
2018-04-22T07:35:29.016Z,53.6
2018-04-22T07:36:19.541Z,53.6
2018-04-22T07:37:10.095Z,53.6
2018-04-22T07:37:59.955Z,53.6
2018-04-22T07:38:50.267Z,53.6
2018-04-22T07:39:39.823Z,53.6
2018-04-22T07:40:30.681Z,53.6
2018-04-22T07:41:20.727Z,53.6
2018-04-22T07:42:10.799Z,53.5
2018-04-22T07:43:01.153Z,53.5
2018-04-22T07:43:50.633Z,53.5
2018-04-22T07:44:40.683Z,53.5
2018-04-22T07:45:31.326Z,53.4
2018-04-22T07:46:20.893Z,53.4
2018-04-22T07:47:11.174Z,53.4
2018-04-22T07:48:00.959Z,53.4
2018-04-22T07:48:50.616Z,53.4
2018-04-22T07:49:41.365Z,53.4
2018-04-22T07:50:31.219Z,53.3
2018-04-22T07:51:21.222Z,53.3
2018-04-22T07:52:11.845Z,53.3
2018-04-22T07:53:01.610Z,53.3
2018-04-22T07:53:51.420Z,53.2
2018-04-22T07:54:41.545Z,53.2
2018-04-22T07:55:31.797Z,53.2
2018-04-22T07:56:21.675Z,53.2
2018-04-22T07:57:11.911Z,53.2
2018-04-22T07:58:02.009Z,53.1
2018-04-22T07:58:51.487Z,53.1
2018-04-22T07:59:41.843Z,53.1
2018-04-22T08:00:31.614Z,53.1
2018-04-22T08:01:21.704Z,53.1
2018-04-22T08:02:12.316Z,53.1
2018-04-22T08:03:02.400Z,53.1
2018-04-22T08:03:52.458Z,53.1
2018-04-22T08:04:42.781Z,53.1
2018-04-22T08:05:32.564Z,53.1
2018-04-22T08:06:22.618Z,53.1
2018-04-22T08:07:12.989Z,53.1
2018-04-22T08:08:02.772Z,53
2018-04-22T08:08:53.114Z,53
2018-04-22T08:09:42.890Z,53
2018-04-22T08:10:33.246Z,53
2018-04-22T08:11:23.020Z,53
2018-04-22T08:12:13.071Z,52.9
2018-04-22T08:13:03.428Z,52.9
2018-04-22T08:13:52.996Z,52.9
2018-04-22T08:14:43.286Z,52.9
2018-04-22T08:15:33.366Z,52.9
2018-04-22T08:16:23.183Z,52.9
2018-04-22T08:17:13.769Z,52.9
2018-04-22T08:18:03.543Z,52.9
2018-04-22T08:18:53.870Z,52.9
2018-04-22T08:19:42.928Z,52.9
2018-04-22T08:20:32.901Z,52.9
2018-04-22T08:21:24.070Z,52.8
2018-04-22T08:22:14.154Z,52.8
2018-04-22T08:23:03.359Z,52.8
2018-04-22T08:23:54.012Z,52.8
2018-04-22T08:24:44.326Z,52.8
2018-04-22T08:25:34.145Z,52.8
2018-04-22T08:26:24.468Z,52.8
2018-04-22T08:27:14.547Z,52.8
2018-04-22T08:28:04.312Z,52.8
2018-04-22T08:28:54.405Z,52.7
2018-04-22T08:29:44.733Z,52.7
2018-04-22T08:30:34.514Z,52.6
2018-04-22T08:31:24.354Z,52.6
2018-04-22T08:32:14.647Z,52.6
2018-04-22T08:33:04.434Z,52.6
2018-04-22T08:33:55.311Z,52.6
2018-04-22T08:34:45.097Z,52.6
2018-04-22T08:35:34.903Z,52.6
2018-04-22T08:36:25.021Z,52.5
2018-04-22T08:37:15.045Z,52.5
2018-04-22T08:38:05.389Z,52.5
2018-04-22T08:38:55.410Z,52.5
2018-04-22T08:39:44.998Z,52.4
2018-04-22T08:40:35.006Z,52.4
2018-04-22T08:43:05.209Z,52.3
2018-04-22T08:43:55.492Z,52.3
2018-04-22T08:44:45.887Z,52.3
2018-04-22T08:45:35.662Z,52.2
2018-04-22T08:46:25.757Z,52.2
2018-04-22T08:47:16.080Z,52.1
2018-04-22T08:48:06.183Z,52.1
2018-04-22T08:48:56.202Z,52.1
2018-04-22T08:49:46.264Z,52
2018-04-22T08:50:36.488Z,52
2018-04-22T08:51:26.113Z,52
2018-04-22T08:53:06.521Z,51.9
2018-04-22T08:53:56.592Z,51.8
2018-04-22T08:54:46.127Z,51.9
2018-04-22T08:55:36.717Z,51.8
2018-04-22T08:56:26.538Z,51.8
2018-04-22T08:57:16.594Z,51.8
2018-04-22T08:58:06.978Z,51.7
2018-04-22T08:58:57.021Z,51.7
2018-04-22T08:59:47.047Z,51.6
2018-04-22T09:00:36.569Z,51.6
2018-04-22T09:01:26.897Z,51.6
2018-04-22T09:02:17.228Z,51.5
2018-04-22T09:03:07.316Z,51.6
2018-04-22T09:03:57.377Z,51.5
2018-04-22T09:04:47.145Z,51.4
2018-04-22T09:05:37.501Z,51.5
2018-04-22T09:06:27.566Z,51.4
2018-04-22T09:07:17.343Z,51.4
2018-04-22T09:08:07.703Z,51.4
2018-04-22T09:08:57.732Z,51.4
2018-04-22T09:09:47.868Z,51.4
2018-04-22T09:10:37.900Z,51.4
2018-04-22T09:11:27.955Z,51.4
2018-04-22T09:12:17.750Z,51.4
2018-04-22T09:13:07.538Z,51.5
2018-04-22T09:13:58.164Z,51.5
2018-04-22T09:14:47.664Z,51.6
2018-04-22T09:15:38.277Z,51.6
2018-04-22T09:16:28.677Z,51.7
2018-04-22T09:17:17.829Z,51.7
2018-04-22T09:18:08.511Z,51.8
2018-04-22T09:18:58.538Z,51.8
2018-04-22T09:19:48.598Z,51.8
2018-04-22T09:20:38.398Z,51.9
2018-04-22T09:21:28.726Z,51.9
2018-04-22T09:23:08.603Z,52
2018-04-22T09:23:58.936Z,52
2018-04-22T09:24:48.992Z,52.1
2018-04-22T09:25:38.520Z,52.1
2018-04-22T09:26:28.861Z,52.2
2018-04-22T09:27:19.213Z,52.2
2018-04-22T09:28:08.998Z,52.3
2018-04-22T09:28:59.293Z,52.3
2018-04-22T09:29:48.820Z,52.3
2018-04-22T09:31:28.945Z,52.4
2018-04-22T09:32:19.290Z,52.4
2018-04-22T09:33:09.901Z,52.5
2018-04-22T09:33:59.728Z,52.6
2018-04-22T09:34:49.754Z,52.6
2018-04-22T09:35:39.569Z,52.6
2018-04-22T09:36:29.916Z,52.7
2018-04-22T09:37:19.394Z,52.8
2018-04-22T09:38:10.034Z,52.8
2018-04-22T09:39:00.080Z,52.9
2018-04-22T09:39:49.896Z,52.9
2018-04-22T09:40:40.203Z,52.9
2018-04-22T09:41:30.318Z,53.1
2018-04-22T09:42:20.072Z,53.1
2018-04-22T09:43:10.547Z,53.1
2018-04-22T09:44:00.493Z,53.2
2018-04-22T09:44:50.526Z,53.3
2018-04-22T09:45:40.594Z,53.3
2018-04-22T09:46:30.652Z,53.4
2018-04-22T09:47:20.514Z,53.4
2018-04-22T09:48:10.836Z,53.5
2018-04-22T09:49:00.872Z,53.6
2018-04-22T09:49:51.184Z,53.6
2018-04-22T09:50:40.435Z,53.6
2018-04-22T09:51:31.092Z,53.7
2018-04-22T09:52:21.128Z,53.8
2018-04-22T09:53:11.226Z,53.8
2018-04-22T09:54:00.958Z,53.8
2018-04-22T09:54:51.078Z,53.9
2018-04-22T09:55:41.742Z,53.9
2018-04-22T09:56:31.175Z,53.9
2018-04-22T09:57:21.276Z,54
2018-04-22T09:58:11.577Z,54
2018-04-22T09:59:01.430Z,54.1
2018-04-22T09:59:51.734Z,54.1
2018-04-22T10:00:41.783Z,54.1
2018-04-22T10:01:31.268Z,54.2
2018-04-22T10:02:21.923Z,54.3
2018-04-22T10:03:11.954Z,54.3
2018-04-22T10:04:01.761Z,54.3
2018-04-22T10:04:52.016Z,54.4
2018-04-22T10:05:42.167Z,54.4
2018-04-22T10:06:32.303Z,54.5
2018-04-22T10:07:22.013Z,54.5
2018-04-22T10:08:12.416Z,54.6
2018-04-22T10:09:02.427Z,54.6
2018-04-22T10:09:52.491Z,54.6
2018-04-22T10:10:42.260Z,54.7
2018-04-22T10:11:32.374Z,54.8
2018-04-22T10:12:22.676Z,54.8
2018-04-22T10:13:12.749Z,54.9
2018-04-22T10:14:02.817Z,54.9
2018-04-22T10:14:52.344Z,54.9
2018-04-22T10:15:42.946Z,55
2018-04-22T10:16:33.024Z,55.1
2018-04-22T10:17:23.075Z,55.1
2018-04-22T10:18:12.623Z,55.2
2018-04-22T10:19:02.459Z,55.3
2018-04-22T10:19:52.828Z,55.3
2018-04-22T10:20:43.358Z,55.4
2018-04-22T10:21:33.426Z,55.4
2018-04-22T10:22:23.212Z,55.4
2018-04-22T10:23:13.257Z,55.5
2018-04-22T10:24:03.319Z,55.6
2018-04-22T10:24:53.384Z,55.6
2018-04-22T10:25:43.449Z,55.7
2018-04-22T10:26:33.818Z,55.8
2018-04-22T10:27:23.884Z,55.8
2018-04-22T10:28:13.647Z,55.8
2018-04-22T10:29:03.453Z,55.9
2018-04-22T10:29:54.074Z,55.9
2018-04-22T10:30:43.829Z,55.9
2018-04-22T10:31:33.635Z,56
2018-04-22T10:32:24.254Z,56.1
2018-04-22T10:33:14.309Z,56.1
2018-04-22T10:34:04.380Z,56.1
2018-04-22T10:34:53.626Z,56.2
2018-04-22T10:35:44.252Z,56.3
2018-04-22T10:36:34.761Z,56.3
2018-04-22T10:37:24.090Z,56.4
2018-04-22T10:38:14.703Z,56.4
2018-04-22T10:39:04.509Z,56.4
2018-04-22T10:39:54.846Z,56.5
2018-04-22T10:40:44.894Z,56.6
2018-04-22T10:41:35.007Z,56.6
2018-04-22T10:42:24.762Z,56.6
2018-04-22T10:43:15.106Z,56.6
2018-04-22T10:44:05.173Z,56.6
2018-04-22T10:44:54.971Z,56.6
2018-04-22T10:45:44.452Z,56.7
2018-04-22T10:46:35.390Z,56.7
2018-04-22T10:47:25.180Z,56.7
2018-04-22T10:48:15.490Z,56.7
2018-04-22T10:49:04.988Z,56.8
2018-04-22T10:49:55.663Z,56.7
2018-04-22T10:50:45.684Z,56.8
2018-04-22T10:51:35.744Z,56.8
2018-04-22T10:52:25.801Z,56.8
2018-04-22T10:53:15.874Z,56.8
2018-04-22T10:54:06.021Z,56.7
2018-04-22T10:54:56.026Z,56.7
2018-04-22T10:55:45.799Z,56.7
2018-04-22T10:56:35.588Z,56.8
2018-04-22T10:57:25.708Z,56.7
2018-04-22T10:58:15.702Z,56.7
2018-04-22T10:59:05.891Z,56.7
2018-04-22T10:59:56.814Z,56.7
2018-04-22T11:00:46.482Z,56.7
2018-04-22T11:01:36.245Z,56.7
2018-04-22T11:02:26.622Z,56.7
2018-04-22T11:03:16.379Z,56.7
2018-04-22T11:04:06.180Z,56.7
2018-04-22T11:04:56.312Z,56.7
2018-04-22T11:05:46.582Z,56.7
2018-04-22T11:06:36.944Z,56.7
2018-04-22T11:07:26.990Z,56.8
2018-04-22T11:08:16.772Z,56.8
2018-04-22T11:09:07.142Z,56.8
2018-04-22T11:09:56.894Z,56.8
2018-04-22T11:10:46.979Z,56.9
2018-04-22T11:11:37.062Z,56.9
2018-04-22T11:12:26.811Z,56.9
2018-04-22T11:13:17.178Z,56.9
2018-04-22T11:14:07.499Z,57
2018-04-22T11:14:57.579Z,57.1
2018-04-22T11:15:47.369Z,57.1
2018-04-22T11:16:37.724Z,57.1
2018-04-22T11:17:27.772Z,57.1
2018-04-22T11:18:17.883Z,57.2
2018-04-22T11:19:07.921Z,57.2
2018-04-22T11:19:57.981Z,57.3
2018-04-22T11:20:48.006Z,57.3